sensor_id;sensor_type;location;lat;lon;timestamp;P1;durP1;ratioP1;P2;durP2;ratioP2
69417;SDS011;56610;48.872;2.400;2023-05-16T00:01:51;8.27;;;2.53;;
69417;SDS011;56610;48.872;2.400;2023-05-16T00:04:16;9.00;;;2.65;;
69417;SDS011;56610;48.872;2.400;2023-05-16T00:06:42;8.55;;;2.47;;
69417;SDS011;56610;48.872;2.400;2023-05-16T00:09:07;9.40;;;2.50;;
69417;SDS011;56610;48.872;2.400;2023-05-16T00:11:33;7.00;;;2.65;;
69417;SDS011;56610;48.872;2.400;2023-05-16T00:13:59;10.27;;;2.58;;
69417;SDS011;56610;48.872;2.400;2023-05-16T00:16:25;9.35;;;2.53;;
69417;SDS011;56610;48.872;2.400;2023-05-16T00:18:53;10.32;;;2.85;;
69417;SDS011;56610;48.872;2.400;2023-05-16T00:21:21;8.93;;;2.63;;
69417;SDS011;56610;48.872;2.400;2023-05-16T00:23:47;10.52;;;2.47;;
69417;SDS011;56610;48.872;2.400;2023-05-16T00:26:13;9.65;;;2.63;;
69417;SDS011;56610;48.872;2.400;2023-05-16T00:28:38;8.77;;;2.50;;
69417;SDS011;56610;48.872;2.400;2023-05-16T00:31:04;9.35;;;2.50;;
69417;SDS011;56610;48.872;2.400;2023-05-16T00:33:29;9.70;;;2.35;;
69417;SDS011;56610;48.872;2.400;2023-05-16T00:35:55;9.25;;;2.50;;
69417;SDS011;56610;48.872;2.400;2023-05-16T00:38:21;9.73;;;2.28;;
69417;SDS011;56610;48.872;2.400;2023-05-16T00:40:46;7.15;;;2.20;;
69417;SDS011;56610;48.872;2.400;2023-05-16T00:43:12;8.93;;;2.50;;
69417;SDS011;56610;48.872;2.400;2023-05-16T00:45:38;9.73;;;2.70;;
69417;SDS011;56610;48.872;2.400;2023-05-16T00:48:23;9.35;;;2.35;;
69417;SDS011;56610;48.872;2.400;2023-05-16T00:50:49;11.02;;;2.42;;
69417;SDS011;56610;48.872;2.400;2023-05-16T00:53:16;10.80;;;2.67;;
69417;SDS011;56610;48.872;2.400;2023-05-16T00:55:42;9.50;;;2.72;;
69417;SDS011;56610;48.872;2.400;2023-05-16T00:58:09;8.32;;;2.30;;
69417;SDS011;56610;48.872;2.400;2023-05-16T01:00:35;12.10;;;2.70;;
69417;SDS011;56610;48.872;2.400;2023-05-16T01:03:03;12.77;;;3.20;;
69417;SDS011;56610;48.872;2.400;2023-05-16T01:05:29;10.90;;;3.03;;
69417;SDS011;56610;48.872;2.400;2023-05-16T01:07:55;8.68;;;2.40;;
69417;SDS011;56610;48.872;2.400;2023-05-16T01:10:21;9.30;;;2.35;;
69417;SDS011;56610;48.872;2.400;2023-05-16T01:15:29;8.98;;;2.08;;
69417;SDS011;56610;48.872;2.400;2023-05-16T01:18:07;10.05;;;2.55;;
69417;SDS011;56610;48.872;2.400;2023-05-16T01:21:00;10.68;;;2.65;;
69417;SDS011;56610;48.872;2.400;2023-05-16T01:28:49;8.00;;;2.00;;
69417;SDS011;56610;48.872;2.400;2023-05-16T01:31:16;7.03;;;1.77;;
69417;SDS011;56610;48.872;2.400;2023-05-16T01:33:42;8.70;;;2.40;;
69417;SDS011;56610;48.872;2.400;2023-05-16T01:39:19;8.13;;;2.40;;
69417;SDS011;56610;48.872;2.400;2023-05-16T01:42:06;9.32;;;2.33;;
69417;SDS011;56610;48.872;2.400;2023-05-16T01:47:12;7.78;;;2.13;;
69417;SDS011;56610;48.872;2.400;2023-05-16T01:52:34;8.02;;;2.17;;
69417;SDS011;56610;48.872;2.400;2023-05-16T01:55:08;7.03;;;1.73;;
69417;SDS011;56610;48.872;2.400;2023-05-16T01:57:39;10.00;;;2.53;;
69417;SDS011;56610;48.872;2.400;2023-05-16T02:00:06;11.45;;;2.70;;
69417;SDS011;56610;48.872;2.400;2023-05-16T02:02:32;9.73;;;2.30;;
69417;SDS011;56610;48.872;2.400;2023-05-16T02:04:58;7.47;;;2.13;;
69417;SDS011;56610;48.872;2.400;2023-05-16T02:07:23;7.63;;;2.20;;
69417;SDS011;56610;48.872;2.400;2023-05-16T02:09:49;7.93;;;2.28;;
69417;SDS011;56610;48.872;2.400;2023-05-16T02:12:15;9.10;;;2.33;;
69417;SDS011;56610;48.872;2.400;2023-05-16T02:14:40;9.50;;;2.38;;
69417;SDS011;56610;48.872;2.400;2023-05-16T02:17:06;10.07;;;2.55;;
69417;SDS011;56610;48.872;2.400;2023-05-16T02:19:31;8.80;;;2.28;;
69417;SDS011;56610;48.872;2.400;2023-05-16T02:21:57;9.15;;;2.00;;
69417;SDS011;56610;48.872;2.400;2023-05-16T02:24:23;8.68;;;2.45;;
69417;SDS011;56610;48.872;2.400;2023-05-16T02:26:48;6.55;;;2.15;;
69417;SDS011;56610;48.872;2.400;2023-05-16T02:29:14;8.02;;;2.10;;
69417;SDS011;56610;48.872;2.400;2023-05-16T02:31:40;9.63;;;2.47;;
69417;SDS011;56610;48.872;2.400;2023-05-16T02:34:06;6.90;;;1.90;;
69417;SDS011;56610;48.872;2.400;2023-05-16T02:36:33;11.07;;;2.75;;
69417;SDS011;56610;48.872;2.400;2023-05-16T02:39:00;8.27;;;1.90;;
69417;SDS011;56610;48.872;2.400;2023-05-16T02:41:26;10.32;;;2.17;;
69417;SDS011;56610;48.872;2.400;2023-05-16T02:43:52;10.32;;;2.05;;
69417;SDS011;56610;48.872;2.400;2023-05-16T02:46:24;7.97;;;2.17;;
69417;SDS011;56610;48.872;2.400;2023-05-16T02:48:51;11.38;;;2.70;;
69417;SDS011;56610;48.872;2.400;2023-05-16T02:51:21;8.60;;;2.33;;
69417;SDS011;56610;48.872;2.400;2023-05-16T02:53:49;8.35;;;2.50;;
69417;SDS011;56610;48.872;2.400;2023-05-16T02:56:16;8.35;;;2.35;;
69417;SDS011;56610;48.872;2.400;2023-05-16T02:58:42;8.20;;;2.15;;
69417;SDS011;56610;48.872;2.400;2023-05-16T03:01:09;10.15;;;2.55;;
69417;SDS011;56610;48.872;2.400;2023-05-16T03:03:35;12.02;;;2.47;;
69417;SDS011;56610;48.872;2.400;2023-05-16T03:06:01;7.20;;;2.10;;
69417;SDS011;56610;48.872;2.400;2023-05-16T03:08:27;8.85;;;2.28;;
69417;SDS011;56610;48.872;2.400;2023-05-16T03:10:52;11.38;;;2.53;;
69417;SDS011;56610;48.872;2.400;2023-05-16T03:13:18;7.35;;;2.35;;
69417;SDS011;56610;48.872;2.400;2023-05-16T03:15:44;11.35;;;2.38;;
69417;SDS011;56610;48.872;2.400;2023-05-16T03:18:10;8.50;;;2.33;;
69417;SDS011;56610;48.872;2.400;2023-05-16T03:20:36;8.93;;;2.22;;
69417;SDS011;56610;48.872;2.400;2023-05-16T03:23:02;7.85;;;2.17;;
69417;SDS011;56610;48.872;2.400;2023-05-16T03:25:31;10.70;;;2.25;;
69417;SDS011;56610;48.872;2.400;2023-05-16T03:27:57;7.70;;;1.85;;
69417;SDS011;56610;48.872;2.400;2023-05-16T03:30:23;8.05;;;2.25;;
69417;SDS011;56610;48.872;2.400;2023-05-16T03:32:49;10.60;;;2.55;;
69417;SDS011;56610;48.872;2.400;2023-05-16T03:35:15;9.63;;;2.42;;
69417;SDS011;56610;48.872;2.400;2023-05-16T03:37:41;9.13;;;2.63;;
69417;SDS011;56610;48.872;2.400;2023-05-16T03:40:07;8.10;;;2.22;;
69417;SDS011;56610;48.872;2.400;2023-05-16T03:42:33;8.70;;;2.53;;
69417;SDS011;56610;48.872;2.400;2023-05-16T03:44:59;9.48;;;2.50;;
69417;SDS011;56610;48.872;2.400;2023-05-16T03:47:24;7.32;;;2.10;;
69417;SDS011;56610;48.872;2.400;2023-05-16T03:49:50;10.93;;;2.40;;
69417;SDS011;56610;48.872;2.400;2023-05-16T03:52:17;9.93;;;2.63;;
69417;SDS011;56610;48.872;2.400;2023-05-16T03:54:42;8.35;;;2.38;;
69417;SDS011;56610;48.872;2.400;2023-05-16T03:57:08;10.13;;;2.33;;
69417;SDS011;56610;48.872;2.400;2023-05-16T03:59:34;9.27;;;2.38;;
69417;SDS011;56610;48.872;2.400;2023-05-16T04:02:00;11.82;;;2.67;;
69417;SDS011;56610;48.872;2.400;2023-05-16T04:04:25;7.45;;;2.15;;
69417;SDS011;56610;48.872;2.400;2023-05-16T04:06:51;9.35;;;2.30;;
69417;SDS011;56610;48.872;2.400;2023-05-16T04:09:16;10.55;;;2.40;;
69417;SDS011;56610;48.872;2.400;2023-05-16T04:11:42;9.77;;;2.40;;
69417;SDS011;56610;48.872;2.400;2023-05-16T04:14:08;9.93;;;2.58;;
69417;SDS011;56610;48.872;2.400;2023-05-16T04:16:34;7.50;;;2.00;;
69417;SDS011;56610;48.872;2.400;2023-05-16T04:18:59;6.78;;;1.98;;
69417;SDS011;56610;48.872;2.400;2023-05-16T04:21:25;7.95;;;2.13;;
69417;SDS011;56610;48.872;2.400;2023-05-16T04:23:50;11.93;;;2.60;;
69417;SDS011;56610;48.872;2.400;2023-05-16T04:26:16;8.48;;;2.35;;
69417;SDS011;56610;48.872;2.400;2023-05-16T04:28:42;9.27;;;2.20;;
69417;SDS011;56610;48.872;2.400;2023-05-16T04:31:07;11.80;;;2.38;;
69417;SDS011;56610;48.872;2.400;2023-05-16T04:33:33;11.52;;;2.90;;
69417;SDS011;56610;48.872;2.400;2023-05-16T04:35:58;10.00;;;3.25;;
69417;SDS011;56610;48.872;2.400;2023-05-16T04:38:24;12.63;;;2.45;;
69417;SDS011;56610;48.872;2.400;2023-05-16T04:40:50;10.48;;;2.50;;
69417;SDS011;56610;48.872;2.400;2023-05-16T04:43:16;8.05;;;2.00;;
69417;SDS011;56610;48.872;2.400;2023-05-16T04:45:42;10.65;;;2.70;;
69417;SDS011;56610;48.872;2.400;2023-05-16T04:48:08;10.52;;;2.20;;
69417;SDS011;56610;48.872;2.400;2023-05-16T04:50:34;10.23;;;2.30;;
69417;SDS011;56610;48.872;2.400;2023-05-16T04:53:00;9.00;;;2.42;;
69417;SDS011;56610;48.872;2.400;2023-05-16T04:55:26;10.95;;;2.33;;
69417;SDS011;56610;48.872;2.400;2023-05-16T04:57:52;10.88;;;2.30;;
69417;SDS011;56610;48.872;2.400;2023-05-16T05:00:17;10.60;;;2.60;;
69417;SDS011;56610;48.872;2.400;2023-05-16T05:02:43;8.73;;;1.75;;
69417;SDS011;56610;48.872;2.400;2023-05-16T05:05:09;8.43;;;2.22;;
69417;SDS011;56610;48.872;2.400;2023-05-16T05:07:36;8.88;;;2.53;;
69417;SDS011;56610;48.872;2.400;2023-05-16T05:10:01;9.50;;;2.65;;
69417;SDS011;56610;48.872;2.400;2023-05-16T05:12:27;9.23;;;2.42;;
69417;SDS011;56610;48.872;2.400;2023-05-16T05:14:53;7.63;;;2.00;;
69417;SDS011;56610;48.872;2.400;2023-05-16T05:17:19;7.13;;;2.20;;
69417;SDS011;56610;48.872;2.400;2023-05-16T05:19:45;8.07;;;2.35;;
69417;SDS011;56610;48.872;2.400;2023-05-16T05:22:12;9.90;;;2.58;;
69417;SDS011;56610;48.872;2.400;2023-05-16T05:24:38;10.48;;;2.38;;
69417;SDS011;56610;48.872;2.400;2023-05-16T05:27:03;11.23;;;2.40;;
69417;SDS011;56610;48.872;2.400;2023-05-16T05:29:29;7.45;;;2.22;;
69417;SDS011;56610;48.872;2.400;2023-05-16T05:31:55;9.55;;;2.30;;
69417;SDS011;56610;48.872;2.400;2023-05-16T05:34:20;9.50;;;2.15;;
69417;SDS011;56610;48.872;2.400;2023-05-16T05:36:46;11.27;;;2.70;;
69417;SDS011;56610;48.872;2.400;2023-05-16T05:39:12;10.23;;;2.55;;
69417;SDS011;56610;48.872;2.400;2023-05-16T05:41:37;10.20;;;2.63;;
69417;SDS011;56610;48.872;2.400;2023-05-16T05:44:03;10.70;;;2.05;;
69417;SDS011;56610;48.872;2.400;2023-05-16T05:46:30;6.60;;;2.15;;
69417;SDS011;56610;48.872;2.400;2023-05-16T05:48:56;10.65;;;2.47;;
69417;SDS011;56610;48.872;2.400;2023-05-16T05:51:21;8.10;;;2.33;;
69417;SDS011;56610;48.872;2.400;2023-05-16T05:53:47;7.95;;;2.10;;
69417;SDS011;56610;48.872;2.400;2023-05-16T05:56:13;8.82;;;2.10;;
69417;SDS011;56610;48.872;2.400;2023-05-16T05:58:40;8.77;;;2.50;;
69417;SDS011;56610;48.872;2.400;2023-05-16T06:01:06;8.65;;;2.30;;
69417;SDS011;56610;48.872;2.400;2023-05-16T06:03:31;8.60;;;2.00;;
69417;SDS011;56610;48.872;2.400;2023-05-16T06:05:57;10.35;;;2.17;;
69417;SDS011;56610;48.872;2.400;2023-05-16T06:08:23;5.75;;;1.90;;
69417;SDS011;56610;48.872;2.400;2023-05-16T06:10:48;6.85;;;2.08;;
69417;SDS011;56610;48.872;2.400;2023-05-16T06:13:14;6.50;;;1.75;;
69417;SDS011;56610;48.872;2.400;2023-05-16T06:15:40;9.77;;;2.58;;
69417;SDS011;56610;48.872;2.400;2023-05-16T06:18:05;10.55;;;2.13;;
69417;SDS011;56610;48.872;2.400;2023-05-16T06:20:31;8.45;;;2.13;;
69417;SDS011;56610;48.872;2.400;2023-05-16T06:22:57;8.88;;;2.17;;
69417;SDS011;56610;48.872;2.400;2023-05-16T06:25:22;6.38;;;2.20;;
69417;SDS011;56610;48.872;2.400;2023-05-16T06:27:48;9.60;;;2.17;;
69417;SDS011;56610;48.872;2.400;2023-05-16T06:30:13;7.55;;;2.10;;
69417;SDS011;56610;48.872;2.400;2023-05-16T06:32:39;10.95;;;2.13;;
69417;SDS011;56610;48.872;2.400;2023-05-16T06:35:05;7.45;;;2.00;;
69417;SDS011;56610;48.872;2.400;2023-05-16T06:37:33;8.77;;;2.20;;
69417;SDS011;56610;48.872;2.400;2023-05-16T06:39:58;7.75;;;1.90;;
69417;SDS011;56610;48.872;2.400;2023-05-16T06:42:24;8.55;;;2.00;;
69417;SDS011;56610;48.872;2.400;2023-05-16T06:44:49;8.18;;;2.50;;
69417;SDS011;56610;48.872;2.400;2023-05-16T06:47:15;7.20;;;1.95;;
69417;SDS011;56610;48.872;2.400;2023-05-16T06:49:40;6.15;;;1.77;;
69417;SDS011;56610;48.872;2.400;2023-05-16T06:52:06;8.48;;;1.88;;
69417;SDS011;56610;48.872;2.400;2023-05-16T06:54:32;6.25;;;2.10;;
69417;SDS011;56610;48.872;2.400;2023-05-16T06:57:17;7.10;;;1.77;;
69417;SDS011;56610;48.872;2.400;2023-05-16T06:59:43;8.23;;;1.92;;
69417;SDS011;56610;48.872;2.400;2023-05-16T07:02:09;6.88;;;2.00;;
69417;SDS011;56610;48.872;2.400;2023-05-16T07:04:34;10.65;;;2.05;;
69417;SDS011;56610;48.872;2.400;2023-05-16T07:07:01;6.70;;;1.97;;
69417;SDS011;56610;48.872;2.400;2023-05-16T07:09:48;9.15;;;2.08;;
69417;SDS011;56610;48.872;2.400;2023-05-16T07:12:14;9.77;;;2.25;;
69417;SDS011;56610;48.872;2.400;2023-05-16T07:14:39;8.32;;;2.00;;
69417;SDS011;56610;48.872;2.400;2023-05-16T07:17:05;9.45;;;1.92;;
69417;SDS011;56610;48.872;2.400;2023-05-16T07:19:31;6.45;;;1.95;;
69417;SDS011;56610;48.872;2.400;2023-05-16T07:22:17;6.68;;;1.67;;
69417;SDS011;56610;48.872;2.400;2023-05-16T07:24:42;8.20;;;2.13;;
69417;SDS011;56610;48.872;2.400;2023-05-16T07:27:08;6.97;;;2.00;;
69417;SDS011;56610;48.872;2.400;2023-05-16T07:29:33;10.48;;;2.28;;
69417;SDS011;56610;48.872;2.400;2023-05-16T07:32:01;7.97;;;2.03;;
69417;SDS011;56610;48.872;2.400;2023-05-16T07:34:27;9.70;;;2.10;;
69417;SDS011;56610;48.872;2.400;2023-05-16T07:36:52;7.85;;;2.00;;
69417;SDS011;56610;48.872;2.400;2023-05-16T07:39:18;7.85;;;1.77;;
69417;SDS011;56610;48.872;2.400;2023-05-16T07:41:44;6.97;;;1.58;;
69417;SDS011;56610;48.872;2.400;2023-05-16T07:44:09;7.80;;;1.98;;
69417;SDS011;56610;48.872;2.400;2023-05-16T07:46:35;7.22;;;1.60;;
69417;SDS011;56610;48.872;2.400;2023-05-16T07:49:00;6.47;;;1.80;;
69417;SDS011;56610;48.872;2.400;2023-05-16T07:51:26;5.60;;;1.88;;
69417;SDS011;56610;48.872;2.400;2023-05-16T07:53:52;7.57;;;2.00;;
69417;SDS011;56610;48.872;2.400;2023-05-16T07:56:18;7.03;;;1.85;;
69417;SDS011;56610;48.872;2.400;2023-05-16T07:58:44;5.65;;;1.98;;
69417;SDS011;56610;48.872;2.400;2023-05-16T08:01:10;5.60;;;1.63;;
69417;SDS011;56610;48.872;2.400;2023-05-16T08:03:36;5.80;;;1.50;;
69417;SDS011;56610;48.872;2.400;2023-05-16T08:06:01;6.68;;;1.67;;
69417;SDS011;56610;48.872;2.400;2023-05-16T08:08:27;6.38;;;1.80;;
69417;SDS011;56610;48.872;2.400;2023-05-16T08:10:53;10.25;;;2.00;;
69417;SDS011;56610;48.872;2.400;2023-05-16T08:13:18;7.20;;;1.80;;
69417;SDS011;56610;48.872;2.400;2023-05-16T08:15:44;7.95;;;2.13;;
69417;SDS011;56610;48.872;2.400;2023-05-16T08:18:13;6.95;;;2.00;;
69417;SDS011;56610;48.872;2.400;2023-05-16T08:20:40;5.45;;;1.70;;
69417;SDS011;56610;48.872;2.400;2023-05-16T08:23:06;5.97;;;1.60;;
69417;SDS011;56610;48.872;2.400;2023-05-16T08:25:32;4.78;;;1.58;;
69417;SDS011;56610;48.872;2.400;2023-05-16T08:27:58;4.90;;;1.40;;
69417;SDS011;56610;48.872;2.400;2023-05-16T08:30:26;5.33;;;1.53;;
69417;SDS011;56610;48.872;2.400;2023-05-16T08:32:51;6.70;;;1.88;;
69417;SDS011;56610;48.872;2.400;2023-05-16T08:35:17;8.20;;;1.40;;
69417;SDS011;56610;48.872;2.400;2023-05-16T08:40:28;5.78;;;1.38;;
69417;SDS011;56610;48.872;2.400;2023-05-16T08:42:55;4.68;;;1.23;;
69417;SDS011;56610;48.872;2.400;2023-05-16T08:45:21;7.45;;;1.58;;
69417;SDS011;56610;48.872;2.400;2023-05-16T08:47:48;5.78;;;1.30;;
69417;SDS011;56610;48.872;2.400;2023-05-16T08:52:41;5.32;;;1.20;;
69417;SDS011;56610;48.872;2.400;2023-05-16T08:55:11;4.97;;;1.23;;
69417;SDS011;56610;48.872;2.400;2023-05-16T09:00:08;8.68;;;1.50;;
69417;SDS011;56610;48.872;2.400;2023-05-16T09:02:38;5.55;;;1.58;;
69417;SDS011;56610;48.872;2.400;2023-05-16T09:05:04;4.95;;;1.60;;
69417;SDS011;56610;48.872;2.400;2023-05-16T09:07:32;7.10;;;1.58;;
69417;SDS011;56610;48.872;2.400;2023-05-16T09:09:57;3.20;;;1.10;;
69417;SDS011;56610;48.872;2.400;2023-05-16T09:12:23;5.97;;;1.52;;
69417;SDS011;56610;48.872;2.400;2023-05-16T09:14:49;6.35;;;1.30;;
69417;SDS011;56610;48.872;2.400;2023-05-16T09:17:16;5.65;;;1.33;;
69417;SDS011;56610;48.872;2.400;2023-05-16T09:19:42;6.38;;;1.67;;
69417;SDS011;56610;48.872;2.400;2023-05-16T09:22:10;4.87;;;1.43;;
69417;SDS011;56610;48.872;2.400;2023-05-16T09:24:37;4.72;;;1.23;;
69417;SDS011;56610;48.872;2.400;2023-05-16T09:27:08;5.05;;;1.50;;
69417;SDS011;56610;48.872;2.400;2023-05-16T09:29:34;5.38;;;1.30;;
69417;SDS011;56610;48.872;2.400;2023-05-16T09:37:09;4.90;;;1.50;;
69417;SDS011;56610;48.872;2.400;2023-05-16T09:39:35;6.53;;;1.45;;
69417;SDS011;56610;48.872;2.400;2023-05-16T09:42:01;3.10;;;1.02;;
69417;SDS011;56610;48.872;2.400;2023-05-16T09:44:26;6.47;;;1.52;;
69417;SDS011;56610;48.872;2.400;2023-05-16T09:46:53;4.22;;;1.40;;
69417;SDS011;56610;48.872;2.400;2023-05-16T09:49:19;5.82;;;1.45;;
69417;SDS011;56610;48.872;2.400;2023-05-16T09:51:44;3.35;;;1.15;;
69417;SDS011;56610;48.872;2.400;2023-05-16T09:54:10;3.08;;;1.20;;
69417;SDS011;56610;48.872;2.400;2023-05-16T09:56:54;4.03;;;0.80;;
69417;SDS011;56610;48.872;2.400;2023-05-16T09:59:20;4.10;;;1.00;;
69417;SDS011;56610;48.872;2.400;2023-05-16T10:01:46;6.85;;;1.23;;
69417;SDS011;56610;48.872;2.400;2023-05-16T10:04:12;3.72;;;1.27;;
69417;SDS011;56610;48.872;2.400;2023-05-16T10:06:40;3.35;;;1.58;;
69417;SDS011;56610;48.872;2.400;2023-05-16T10:09:12;3.33;;;1.13;;
69417;SDS011;56610;48.872;2.400;2023-05-16T10:11:41;5.20;;;1.10;;
69417;SDS011;56610;48.872;2.400;2023-05-16T10:14:08;4.03;;;1.10;;
69417;SDS011;56610;48.872;2.400;2023-05-16T10:16:35;4.90;;;1.23;;
69417;SDS011;56610;48.872;2.400;2023-05-16T10:19:02;4.60;;;1.00;;
69417;SDS011;56610;48.872;2.400;2023-05-16T10:21:28;4.03;;;1.25;;
69417;SDS011;56610;48.872;2.400;2023-05-16T10:23:56;4.28;;;1.08;;
69417;SDS011;56610;48.872;2.400;2023-05-16T10:26:26;2.83;;;1.20;;
69417;SDS011;56610;48.872;2.400;2023-05-16T10:28:53;2.37;;;1.00;;
69417;SDS011;56610;48.872;2.400;2023-05-16T10:31:19;5.95;;;1.30;;
69417;SDS011;56610;48.872;2.400;2023-05-16T10:33:45;4.20;;;1.30;;
69417;SDS011;56610;48.872;2.400;2023-05-16T10:36:11;3.15;;;1.33;;
69417;SDS011;56610;48.872;2.400;2023-05-16T10:38:38;3.80;;;1.00;;
69417;SDS011;56610;48.872;2.400;2023-05-16T10:41:06;3.47;;;1.17;;
69417;SDS011;56610;48.872;2.400;2023-05-16T10:43:33;4.75;;;1.17;;
69417;SDS011;56610;48.872;2.400;2023-05-16T10:46:02;3.63;;;1.02;;
69417;SDS011;56610;48.872;2.400;2023-05-16T10:48:33;4.05;;;1.08;;
69417;SDS011;56610;48.872;2.400;2023-05-16T10:51:03;5.47;;;1.40;;
69417;SDS011;56610;48.872;2.400;2023-05-16T10:54:03;3.08;;;1.20;;
69417;SDS011;56610;48.872;2.400;2023-05-16T10:56:31;3.10;;;1.15;;
69417;SDS011;56610;48.872;2.400;2023-05-16T10:58:58;4.78;;;1.40;;
69417;SDS011;56610;48.872;2.400;2023-05-16T11:01:26;3.45;;;1.17;;
69417;SDS011;56610;48.872;2.400;2023-05-16T11:06:29;2.88;;;1.10;;
69417;SDS011;56610;48.872;2.400;2023-05-16T11:09:03;3.90;;;1.20;;
69417;SDS011;56610;48.872;2.400;2023-05-16T11:14:19;3.88;;;1.17;;
69417;SDS011;56610;48.872;2.400;2023-05-16T11:16:49;3.28;;;1.00;;
69417;SDS011;56610;48.872;2.400;2023-05-16T11:24:58;3.90;;;1.17;;
69417;SDS011;56610;48.872;2.400;2023-05-16T11:27:26;1.98;;;0.90;;
69417;SDS011;56610;48.872;2.400;2023-05-16T11:29:56;2.85;;;1.10;;
69417;SDS011;56610;48.872;2.400;2023-05-16T11:32:24;4.10;;;1.38;;
69417;SDS011;56610;48.872;2.400;2023-05-16T11:34:50;3.63;;;0.90;;
69417;SDS011;56610;48.872;2.400;2023-05-16T11:37:16;3.90;;;0.98;;
69417;SDS011;56610;48.872;2.400;2023-05-16T11:39:44;5.13;;;1.33;;
69417;SDS011;56610;48.872;2.400;2023-05-16T11:42:10;4.13;;;1.05;;
69417;SDS011;56610;48.872;2.400;2023-05-16T11:44:37;4.93;;;1.25;;
69417;SDS011;56610;48.872;2.400;2023-05-16T11:47:03;4.80;;;1.08;;
69417;SDS011;56610;48.872;2.400;2023-05-16T11:49:29;4.15;;;1.00;;
69417;SDS011;56610;48.872;2.400;2023-05-16T11:51:55;3.47;;;1.15;;
69417;SDS011;56610;48.872;2.400;2023-05-16T11:54:21;2.10;;;0.80;;
69417;SDS011;56610;48.872;2.400;2023-05-16T11:56:48;2.83;;;0.73;;
69417;SDS011;56610;48.872;2.400;2023-05-16T11:59:15;4.18;;;1.10;;
69417;SDS011;56610;48.872;2.400;2023-05-16T12:01:42;2.33;;;0.93;;
69417;SDS011;56610;48.872;2.400;2023-05-16T12:04:08;1.58;;;0.93;;
69417;SDS011;56610;48.872;2.400;2023-05-16T12:06:37;3.47;;;0.95;;
69417;SDS011;56610;48.872;2.400;2023-05-16T12:09:04;3.58;;;1.10;;
69417;SDS011;56610;48.872;2.400;2023-05-16T12:11:37;4.72;;;0.82;;
69417;SDS011;56610;48.872;2.400;2023-05-16T12:14:04;2.58;;;0.90;;
69417;SDS011;56610;48.872;2.400;2023-05-16T12:16:31;2.47;;;0.98;;
69417;SDS011;56610;48.872;2.400;2023-05-16T12:18:57;2.90;;;1.10;;
69417;SDS011;56610;48.872;2.400;2023-05-16T12:23:54;2.58;;;0.80;;
69417;SDS011;56610;48.872;2.400;2023-05-16T12:26:24;3.90;;;1.30;;
69417;SDS011;56610;48.872;2.400;2023-05-16T12:28:53;6.78;;;1.33;;
69417;SDS011;56610;48.872;2.400;2023-05-16T12:31:22;4.70;;;1.40;;
69417;SDS011;56610;48.872;2.400;2023-05-16T12:33:51;2.97;;;1.00;;
69417;SDS011;56610;48.872;2.400;2023-05-16T12:36:17;2.92;;;1.08;;
69417;SDS011;56610;48.872;2.400;2023-05-16T12:38:45;3.58;;;1.13;;
69417;SDS011;56610;48.872;2.400;2023-05-16T12:41:16;5.57;;;1.20;;
69417;SDS011;56610;48.872;2.400;2023-05-16T12:43:42;2.35;;;1.08;;
69417;SDS011;56610;48.872;2.400;2023-05-16T12:46:08;3.17;;;1.00;;
69417;SDS011;56610;48.872;2.400;2023-05-16T12:48:36;4.07;;;1.13;;
69417;SDS011;56610;48.872;2.400;2023-05-16T12:51:13;2.63;;;1.00;;
69417;SDS011;56610;48.872;2.400;2023-05-16T12:53:41;5.00;;;0.98;;
69417;SDS011;56610;48.872;2.400;2023-05-16T12:56:11;2.28;;;0.77;;
69417;SDS011;56610;48.872;2.400;2023-05-16T12:58:38;1.98;;;0.90;;
69417;SDS011;56610;48.872;2.400;2023-05-16T13:01:04;3.15;;;0.95;;
69417;SDS011;56610;48.872;2.400;2023-05-16T13:03:30;3.90;;;1.15;;
69417;SDS011;56610;48.872;2.400;2023-05-16T13:05:56;1.23;;;0.70;;
69417;SDS011;56610;48.872;2.400;2023-05-16T13:08:23;3.42;;;0.70;;
69417;SDS011;56610;48.872;2.400;2023-05-16T13:10:49;3.33;;;0.90;;
69417;SDS011;56610;48.872;2.400;2023-05-16T13:13:15;2.20;;;0.82;;
69417;SDS011;56610;48.872;2.400;2023-05-16T13:15:41;2.10;;;0.98;;
69417;SDS011;56610;48.872;2.400;2023-05-16T13:18:06;2.42;;;1.10;;
69417;SDS011;56610;48.872;2.400;2023-05-16T13:20:32;2.42;;;0.95;;
69417;SDS011;56610;48.872;2.400;2023-05-16T13:22:58;6.35;;;1.15;;
69417;SDS011;56610;48.872;2.400;2023-05-16T13:25:23;3.70;;;1.05;;
69417;SDS011;56610;48.872;2.400;2023-05-16T13:27:49;3.63;;;0.93;;
69417;SDS011;56610;48.872;2.400;2023-05-16T13:30:14;4.65;;;0.93;;
69417;SDS011;56610;48.872;2.400;2023-05-16T13:32:40;2.95;;;1.00;;
69417;SDS011;56610;48.872;2.400;2023-05-16T13:35:06;2.13;;;0.82;;
69417;SDS011;56610;48.872;2.400;2023-05-16T13:37:33;2.63;;;1.10;;
69417;SDS011;56610;48.872;2.400;2023-05-16T13:39:59;2.65;;;1.10;;
69417;SDS011;56610;48.872;2.400;2023-05-16T13:42:25;1.88;;;0.90;;
69417;SDS011;56610;48.872;2.400;2023-05-16T13:44:51;4.25;;;1.02;;
69417;SDS011;56610;48.872;2.400;2023-05-16T13:47:16;4.13;;;1.10;;
69417;SDS011;56610;48.872;2.400;2023-05-16T13:49:42;2.28;;;0.80;;
69417;SDS011;56610;48.872;2.400;2023-05-16T13:52:08;2.83;;;0.90;;
69417;SDS011;56610;48.872;2.400;2023-05-16T13:54:33;1.75;;;0.88;;
69417;SDS011;56610;48.872;2.400;2023-05-16T13:56:59;1.60;;;0.60;;
69417;SDS011;56610;48.872;2.400;2023-05-16T13:59:26;2.50;;;1.02;;
69417;SDS011;56610;48.872;2.400;2023-05-16T14:01:51;2.00;;;0.88;;
69417;SDS011;56610;48.872;2.400;2023-05-16T14:04:17;2.85;;;1.00;;
69417;SDS011;56610;48.872;2.400;2023-05-16T14:06:42;2.53;;;1.00;;
69417;SDS011;56610;48.872;2.400;2023-05-16T14:09:08;3.53;;;0.90;;
69417;SDS011;56610;48.872;2.400;2023-05-16T14:11:34;4.63;;;1.20;;
69417;SDS011;56610;48.872;2.400;2023-05-16T14:14:00;2.10;;;0.88;;
69417;SDS011;56610;48.872;2.400;2023-05-16T14:16:25;2.38;;;0.88;;
69417;SDS011;56610;48.872;2.400;2023-05-16T14:18:51;2.47;;;0.90;;
69417;SDS011;56610;48.872;2.400;2023-05-16T14:21:16;2.80;;;1.02;;
69417;SDS011;56610;48.872;2.400;2023-05-16T14:23:42;3.35;;;1.20;;
69417;SDS011;56610;48.872;2.400;2023-05-16T14:26:08;2.83;;;0.98;;
69417;SDS011;56610;48.872;2.400;2023-05-16T14:28:56;3.35;;;1.00;;
69417;SDS011;56610;48.872;2.400;2023-05-16T14:31:21;1.92;;;0.88;;
69417;SDS011;56610;48.872;2.400;2023-05-16T14:33:47;3.60;;;1.00;;
69417;SDS011;56610;48.872;2.400;2023-05-16T14:36:33;3.05;;;1.10;;
69417;SDS011;56610;48.872;2.400;2023-05-16T14:39:01;3.17;;;1.05;;
69417;SDS011;56610;48.872;2.400;2023-05-16T14:41:27;2.47;;;0.93;;
69417;SDS011;56610;48.872;2.400;2023-05-16T14:43:53;1.63;;;0.85;;
69417;SDS011;56610;48.872;2.400;2023-05-16T14:46:19;4.82;;;1.02;;
69417;SDS011;56610;48.872;2.400;2023-05-16T14:48:44;2.75;;;1.10;;
69417;SDS011;56610;48.872;2.400;2023-05-16T14:51:10;1.88;;;0.80;;
69417;SDS011;56610;48.872;2.400;2023-05-16T14:53:36;3.00;;;1.00;;
69417;SDS011;56610;48.872;2.400;2023-05-16T14:56:01;2.10;;;0.75;;
69417;SDS011;56610;48.872;2.400;2023-05-16T14:58:27;3.03;;;1.13;;
69417;SDS011;56610;48.872;2.400;2023-05-16T15:00:53;1.45;;;0.80;;
69417;SDS011;56610;48.872;2.400;2023-05-16T15:03:19;3.83;;;1.02;;
69417;SDS011;56610;48.872;2.400;2023-05-16T15:05:44;2.83;;;1.15;;
69417;SDS011;56610;48.872;2.400;2023-05-16T15:08:10;4.45;;;1.00;;
69417;SDS011;56610;48.872;2.400;2023-05-16T15:10:36;3.00;;;1.00;;
69417;SDS011;56610;48.872;2.400;2023-05-16T15:13:01;6.82;;;2.03;;
69417;SDS011;56610;48.872;2.400;2023-05-16T15:15:28;2.53;;;1.15;;
69417;SDS011;56610;48.872;2.400;2023-05-16T15:17:53;3.28;;;1.30;;
69417;SDS011;56610;48.872;2.400;2023-05-16T15:20:19;3.58;;;1.10;;
69417;SDS011;56610;48.872;2.400;2023-05-16T15:22:46;4.28;;;1.10;;
69417;SDS011;56610;48.872;2.400;2023-05-16T15:25:11;2.40;;;0.95;;
69417;SDS011;56610;48.872;2.400;2023-05-16T15:27:37;2.58;;;1.25;;